Time;durP1;ratioP1;P1;durP2;ratioP2;P2;SDS_P1;SDS_P2;PMS_P1;PMS_P2;Temp;Humidity;BMP_temperature;BMP_pressure;BME280_temperature;BME280_humidity;BME280_pressure;Samples;Min_cycle;Max_cycle;Signal;HPM_P1;HPM_P2
2024/01/18 00:00:42;;;;;;;2.67;1.87;;;;;;;;;;4989207;28;20180;-76
2024/01/18 00:03:07;;;;;;;9.03;3.77;;;;;;;;;;4985383;28;21015;-76
2024/01/18 00:05:32;;;;;;;8.30;3.13;;;;;;;;;;4988522;28;20180;-76
2024/01/18 00:07:58;;;;;;;7.10;3.27;;;;;;;;;;5006676;28;20238;-76
2024/01/18 00:10:26;;;;;;;6.90;2.63;;;;;;;;;;4987420;28;20184;-76
2024/01/18 00:12:52;;;;;;;4.67;2.20;;;;;;;;;;5008710;28;20254;-76
2024/01/18 00:15:17;;;;;;;6.17;2.50;;;;;;;;;;4992945;28;20208;-76
2024/01/18 00:17:42;;;;;;;4.17;1.93;;;;;;;;;;4991446;28;20215;-75
2024/01/18 00:20:07;;;;;;;5.53;3.30;;;;;;;;;;4993279;28;20195;-75
2024/01/18 00:22:33;;;;;;;4.93;2.47;;;;;;;;;;4986591;28;20239;-75
2024/01/18 00:24:58;;;;;;;3.47;2.13;;;;;;;;;;4991281;28;20232;-76
2024/01/18 00:27:23;;;;;;;3.47;1.10;;;;;;;;;;4985646;28;20276;-76
2024/01/18 00:29:48;;;;;;;2.23;1.30;;;;;;;;;;4991510;28;20186;-76
2024/01/18 00:32:13;;;;;;;3.87;1.83;;;;;;;;;;4990661;28;20176;-75
2024/01/18 00:34:39;;;;;;;2.70;1.80;;;;;;;;;;4990617;28;20277;-76
2024/01/18 00:37:04;;;;;;;5.33;2.77;;;;;;;;;;4993468;28;20246;-76
2024/01/18 00:39:29;;;;;;;2.07;1.67;;;;;;;;;;4992201;28;20273;-76
2024/01/18 00:41:54;;;;;;;6.07;2.93;;;;;;;;;;4989191;28;20180;-76
2024/01/18 00:44:19;;;;;;;4.20;1.57;;;;;;;;;;4992546;28;20216;-76
2024/01/18 00:46:45;;;;;;;4.53;1.40;;;;;;;;;;4988335;28;20183;-76
2024/01/18 00:49:10;;;;;;;1.10;1.00;;;;;;;;;;4988860;28;20181;-76
2024/01/18 00:51:35;;;;;;;2.93;1.57;;;;;;;;;;4988089;28;20205;-76
2024/01/18 00:54:02;;;;;;;2.90;1.37;;;;;;;;;;4992422;28;20176;-76
2024/01/18 00:56:27;;;;;;;1.43;1.20;;;;;;;;;;4993439;28;20247;-76
2024/01/18 00:58:52;;;;;;;1.80;0.90;;;;;;;;;;5004267;28;20200;-76
2024/01/18 01:01:17;;;;;;;2.13;1.20;;;;;;;;;;4992637;28;20169;-76
2024/01/18 01:03:42;;;;;;;1.23;1.07;;;;;;;;;;4989427;28;20195;-76
2024/01/18 01:06:11;;;;;;;1.53;1.40;;;;;;;;;;4985699;28;20184;-75
2024/01/18 01:08:37;;;;;;;2.90;1.80;;;;;;;;;;4986721;28;20184;-76
2024/01/18 01:11:03;;;;;;;1.97;1.00;;;;;;;;;;4984790;28;20172;-76
2024/01/18 01:13:28;;;;;;;1.60;1.30;;;;;;;;;;4991061;28;20187;-76
2024/01/18 01:15:53;;;;;;;1.03;1.00;;;;;;;;;;5005874;28;20581;-76
2024/01/18 01:18:18;;;;;;;1.83;1.20;;;;;;;;;;4992274;28;20320;-76
2024/01/18 01:20:43;;;;;;;1.40;1.30;;;;;;;;;;4994603;28;20191;-76
2024/01/18 01:23:09;;;;;;;2.77;1.23;;;;;;;;;;4989602;28;20208;-76
2024/01/18 01:25:34;;;;;;;2.63;1.20;;;;;;;;;;4988376;28;20176;-76
2024/01/18 01:27:59;;;;;;;3.37;1.30;;;;;;;;;;4990171;28;20191;-76
2024/01/18 01:30:24;;;;;;;2.93;1.30;;;;;;;;;;5004944;28;20247;-76
2024/01/18 01:32:50;;;;;;;2.03;1.43;;;;;;;;;;4988198;28;20196;-76
2024/01/18 01:35:15;;;;;;;2.53;1.37;;;;;;;;;;4986349;28;20192;-76
2024/01/18 01:37:40;;;;;;;2.53;1.70;;;;;;;;;;4990021;28;20192;-76
2024/01/18 01:40:06;;;;;;;2.80;1.70;;;;;;;;;;4991286;28;20219;-76
2024/01/18 01:42:31;;;;;;;2.23;1.40;;;;;;;;;;5007388;28;20176;-76
2024/01/18 01:44:56;;;;;;;1.87;1.10;;;;;;;;;;4990417;28;20322;-76
2024/01/18 01:47:22;;;;;;;1.83;1.10;;;;;;;;;;5001858;28;20191;-76
2024/01/18 01:49:48;;;;;;;1.80;1.30;;;;;;;;;;4980771;28;20298;-76
2024/01/18 01:52:14;;;;;;;1.17;1.07;;;;;;;;;;4982930;28;20225;-76
2024/01/18 01:54:39;;;;;;;2.50;1.13;;;;;;;;;;5005936;28;20190;-76
2024/01/18 01:57:04;;;;;;;2.07;1.47;;;;;;;;;;4991538;28;20227;-75
2024/01/18 01:59:30;;;;;;;1.67;1.40;;;;;;;;;;4986639;28;20177;-76
2024/01/18 02:01:56;;;;;;;2.10;1.20;;;;;;;;;;4987481;28;20229;-76
2024/01/18 02:04:21;;;;;;;3.30;1.63;;;;;;;;;;4988082;28;20183;-76
2024/01/18 02:06:47;;;;;;;1.03;1.03;;;;;;;;;;4988579;28;20226;-76
2024/01/18 02:09:12;;;;;;;1.40;1.30;;;;;;;;;;4988637;28;20192;-75
2024/01/18 02:11:38;;;;;;;3.97;1.70;;;;;;;;;;4992656;28;20209;-76
2024/01/18 02:14:03;;;;;;;2.40;1.30;;;;;;;;;;4989685;28;20176;-76
2024/01/18 02:16:29;;;;;;;4.13;1.30;;;;;;;;;;4991998;28;20227;-76
2024/01/18 02:18:54;;;;;;;4.30;1.13;;;;;;;;;;4989303;28;20245;-76
2024/01/18 02:21:19;;;;;;;1.90;1.20;;;;;;;;;;4992313;28;20184;-76
2024/01/18 02:23:47;;;;;;;1.07;1.07;;;;;;;;;;4989768;28;20234;-76
2024/01/18 02:26:12;;;;;;;2.70;1.40;;;;;;;;;;4990173;28;20266;-76
2024/01/18 02:28:37;;;;;;;1.30;1.00;;;;;;;;;;4988062;28;20276;-76
2024/01/18 02:31:03;;;;;;;1.10;1.00;;;;;;;;;;4987956;28;20168;-76
2024/01/18 02:33:28;;;;;;;1.13;1.03;;;;;;;;;;4988793;28;20185;-76
2024/01/18 02:35:54;;;;;;;1.53;1.20;;;;;;;;;;5004868;28;20223;-76
2024/01/18 02:38:19;;;;;;;1.40;1.30;;;;;;;;;;4986678;28;20184;-76
2024/01/18 02:40:44;;;;;;;2.70;1.40;;;;;;;;;;4991114;28;20232;-76
2024/01/18 02:43:10;;;;;;;3.30;1.30;;;;;;;;;;4987494;28;20179;-76
2024/01/18 02:45:38;;;;;;;1.23;1.07;;;;;;;;;;4989659;28;20179;-76
2024/01/18 02:48:03;;;;;;;2.63;1.50;;;;;;;;;;4989554;28;20424;-76
2024/01/18 02:50:28;;;;;;;1.90;1.07;;;;;;;;;;4989873;28;20184;-76
2024/01/18 02:52:54;;;;;;;1.30;1.20;;;;;;;;;;4990567;28;20176;-76
2024/01/18 02:55:19;;;;;;;2.23;1.30;;;;;;;;;;4984488;28;20180;-76
2024/01/18 02:57:44;;;;;;;3.50;1.40;;;;;;;;;;4986200;28;20207;-76
2024/01/18 03:00:11;;;;;;;1.87;1.10;;;;;;;;;;4989003;28;20195;-76
2024/01/18 03:02:36;;;;;;;2.00;0.93;;;;;;;;;;4990054;28;20255;-76
2024/01/18 03:05:01;;;;;;;1.80;1.20;;;;;;;;;;4986031;28;20259;-76
2024/01/18 03:07:28;;;;;;;2.73;1.20;;;;;;;;;;4989256;28;20231;-76
2024/01/18 03:09:53;;;;;;;3.13;1.63;;;;;;;;;;4990031;28;20236;-76
2024/01/18 03:12:19;;;;;;;1.27;1.00;;;;;;;;;;4984152;28;20207;-76
2024/01/18 03:14:44;;;;;;;3.57;1.30;;;;;;;;;;4989720;28;20188;-76
2024/01/18 03:17:09;;;;;;;2.20;1.40;;;;;;;;;;5003195;28;20274;-76
2024/01/18 03:19:36;;;;;;;1.13;1.03;;;;;;;;;;4985616;28;20201;-76
2024/01/18 03:22:02;;;;;;;1.83;1.40;;;;;;;;;;4991320;28;20435;-76
2024/01/18 03:24:27;;;;;;;1.37;1.10;;;;;;;;;;5005638;28;20169;-76
2024/01/18 03:26:52;;;;;;;3.07;1.30;;;;;;;;;;4989458;28;20203;-76
2024/01/18 03:29:17;;;;;;;2.90;1.20;;;;;;;;;;4990585;28;20188;-76
2024/01/18 03:31:43;;;;;;;4.67;1.57;;;;;;;;;;5003062;28;20246;-76
2024/01/18 03:34:08;;;;;;;3.27;1.43;;;;;;;;;;4987004;28;20215;-76
2024/01/18 03:36:33;;;;;;;2.13;1.13;;;;;;;;;;4989918;28;20287;-76
2024/01/18 03:38:59;;;;;;;3.07;1.23;;;;;;;;;;4989189;28;20188;-76
2024/01/18 03:41:24;;;;;;;3.60;1.40;;;;;;;;;;4986526;28;20188;-76
2024/01/18 03:43:49;;;;;;;2.37;1.27;;;;;;;;;;4989108;28;20276;-76
2024/01/18 03:46:14;;;;;;;3.17;1.30;;;;;;;;;;4988943;28;20260;-76
2024/01/18 03:48:39;;;;;;;5.13;1.23;;;;;;;;;;4986885;28;20189;-76
2024/01/18 03:51:05;;;;;;;2.00;1.07;;;;;;;;;;4985918;28;20276;-76
2024/01/18 03:53:30;;;;;;;2.30;1.10;;;;;;;;;;4987334;28;20180;-76
2024/01/18 03:55:55;;;;;;;1.97;1.20;;;;;;;;;;4988329;28;20195;-76
2024/01/18 03:58:20;;;;;;;3.00;1.10;;;;;;;;;;4990551;28;20176;-76
2024/01/18 04:00:46;;;;;;;1.90;1.20;;;;;;;;;;4987112;28;20176;-76
2024/01/18 04:03:11;;;;;;;1.77;1.47;;;;;;;;;;4986690;28;20184;-76
2024/01/18 04:05:36;;;;;;;1.60;0.80;;;;;;;;;;4988411;28;20179;-76
2024/01/18 04:08:01;;;;;;;2.70;0.90;;;;;;;;;;4986418;28;20188;-76
2024/01/18 04:10:26;;;;;;;1.40;0.90;;;;;;;;;;4988718;28;20192;-76
2024/01/18 04:12:52;;;;;;;1.00;0.90;;;;;;;;;;4990271;28;20197;-76
2024/01/18 04:15:17;;;;;;;2.17;1.00;;;;;;;;;;4987782;28;20209;-76
2024/01/18 04:17:42;;;;;;;3.43;1.10;;;;;;;;;;4986825;28;20204;-76
2024/01/18 04:20:10;;;;;;;3.77;1.00;;;;;;;;;;4987055;28;20188;-76
2024/01/18 04:22:36;;;;;;;0.90;0.90;;;;;;;;;;5004011;28;20177;-76
2024/01/18 04:25:01;;;;;;;1.43;1.20;;;;;;;;;;4981280;28;20180;-76
2024/01/18 04:27:27;;;;;;;1.73;1.10;;;;;;;;;;4999151;28;20184;-76
2024/01/18 04:29:53;;;;;;;1.20;1.10;;;;;;;;;;4987794;28;20212;-76
2024/01/18 04:32:18;;;;;;;3.20;1.30;;;;;;;;;;5002394;28;20216;-76
2024/01/18 04:34:43;;;;;;;3.27;1.10;;;;;;;;;;4985184;28;20274;-76
2024/01/18 04:37:08;;;;;;;1.20;1.10;;;;;;;;;;4986791;28;20289;-76
2024/01/18 04:39:33;;;;;;;1.70;1.00;;;;;;;;;;4988921;28;20185;-76
2024/01/18 04:41:59;;;;;;;1.10;1.00;;;;;;;;;;4987424;28;20182;-76
2024/01/18 04:44:24;;;;;;;1.23;0.90;;;;;;;;;;4989809;28;20182;-76
2024/01/18 04:46:49;;;;;;;1.93;0.97;;;;;;;;;;4983567;28;20195;-76
2024/01/18 04:49:14;;;;;;;1.80;1.70;;;;;;;;;;4987083;28;20176;-76
2024/01/18 04:51:39;;;;;;;1.50;1.10;;;;;;;;;;4990529;28;20188;-76
2024/01/18 04:54:05;;;;;;;3.93;1.23;;;;;;;;;;4989009;28;20180;-76
2024/01/18 04:56:30;;;;;;;1.03;0.90;;;;;;;;;;4985859;28;20219;-76
2024/01/18 04:58:56;;;;;;;0.90;0.90;;;;;;;;;;4992085;28;20212;-76
2024/01/18 05:01:21;;;;;;;3.90;1.70;;;;;;;;;;4988770;28;20188;-76
2024/01/18 05:03:47;;;;;;;4.40;1.47;;;;;;;;;;4992220;28;20180;-76
2024/01/18 05:06:12;;;;;;;1.43;1.20;;;;;;;;;;4985489;28;20223;-76
2024/01/18 05:08:37;;;;;;;2.17;1.90;;;;;;;;;;4993652;28;20175;-76
2024/01/18 05:11:02;;;;;;;2.17;1.40;;;;;;;;;;4988695;28;20197;-76
2024/01/18 05:13:28;;;;;;;3.63;1.60;;;;;;;;;;5005264;28;20184;-76
2024/01/18 05:15:53;;;;;;;1.10;1.00;;;;;;;;;;4989536;28;20255;-76
2024/01/18 05:18:19;;;;;;;1.40;1.30;;;;;;;;;;4987720;28;20247;-76
2024/01/18 05:20:44;;;;;;;1.90;1.10;;;;;;;;;;4989400;28;20183;-76
2024/01/18 05:23:09;;;;;;;4.27;2.27;;;;;;;;;;4990661;28;20557;-76
2024/01/18 05:25:35;;;;;;;7.50;6.73;;;;;;;;;;4992414;28;20173;-76
2024/01/18 05:28:00;;;;;;;4.83;3.80;;;;;;;;;;4987121;28;20185;-76
2024/01/18 05:30:26;;;;;;;4.30;2.60;;;;;;;;;;5005971;28;20180;-76
2024/01/18 05:32:51;;;;;;;6.87;6.27;;;;;;;;;;4994729;28;20191;-76
2024/01/18 05:35:16;;;;;;;4.07;2.10;;;;;;;;;;4989170;28;20225;-76
2024/01/18 05:37:41;;;;;;;89.30;9.07;;;;;;;;;;4992595;28;20202;-76
2024/01/18 05:40:08;;;;;;;1.03;0.93;;;;;;;;;;4992517;28;20184;-76
2024/01/18 05:42:33;;;;;;;0.80;0.80;;;;;;;;;;4992403;28;20188;-76
2024/01/18 05:44:59;;;;;;;1.37;1.27;;;;;;;;;;4990203;28;20176;-76
2024/01/18 05:47:24;;;;;;;8.67;6.07;;;;;;;;;;4991978;28;20236;-76
2024/01/18 05:49:49;;;;;;;16.00;13.90;;;;;;;;;;4984672;28;20190;-76
2024/01/18 05:52:15;;;;;;;3.67;1.30;;;;;;;;;;4990854;28;20180;-76
2024/01/18 05:54:40;;;;;;;9.67;1.50;;;;;;;;;;4981179;28;20195;-76
2024/01/18 05:57:05;;;;;;;1.73;1.53;;;;;;;;;;4987122;28;20302;-75
2024/01/18 05:59:31;;;;;;;2.33;1.43;;;;;;;;;;4991127;28;20176;-76
2024/01/18 06:01:56;;;;;;;1.50;1.33;;;;;;;;;;4991229;28;20178;-75
2024/01/18 06:04:21;;;;;;;1.20;1.10;;;;;;;;;;4990075;28;20187;-75
2024/01/18 06:06:47;;;;;;;1.07;1.00;;;;;;;;;;4989553;28;20238;-75
2024/01/18 06:09:16;;;;;;;9.00;3.27;;;;;;;;;;4995569;28;20191;-75
2024/01/18 06:11:42;;;;;;;3.27;2.93;;;;;;;;;;4989556;28;20210;-75
2024/01/18 06:14:07;;;;;;;1.73;1.53;;;;;;;;;;4992295;28;20187;-75
2024/01/18 06:16:32;;;;;;;1.50;1.40;;;;;;;;;;4980212;28;20291;-75
2024/01/18 06:18:57;;;;;;;1.40;1.30;;;;;;;;;;4986590;28;20184;-75
2024/01/18 06:21:22;;;;;;;1.40;1.30;;;;;;;;;;4988187;28;20182;-75
2024/01/18 06:23:49;;;;;;;1.33;1.23;;;;;;;;;;4992212;28;20188;-75
2024/01/18 06:26:14;;;;;;;1.57;1.47;;;;;;;;;;4988770;28;20172;-75
2024/01/18 06:28:39;;;;;;;1.60;1.50;;;;;;;;;;4997784;23;20233;-73
2024/01/18 06:31:05;;;;;;;8.10;4.77;;;;;;;;;;4981753;28;20184;-73
2024/01/18 06:33:30;;;;;;;2.17;1.97;;;;;;;;;;4989710;28;20188;-73
2024/01/18 06:35:55;;;;;;;2.83;1.50;;;;;;;;;;4990088;28;20181;-73
2024/01/18 06:38:20;;;;;;;5.53;1.80;;;;;;;;;;4988668;28;20234;-73
2024/01/18 06:40:46;;;;;;;1.50;1.40;;;;;;;;;;4990346;28;20200;-73
2024/01/18 06:43:11;;;;;;;3.43;2.40;;;;;;;;;;4988970;28;20183;-73
2024/01/18 06:45:36;;;;;;;2.37;2.10;;;;;;;;;;4990464;28;20190;-74
2024/01/18 06:48:02;;;;;;;1.77;1.67;;;;;;;;;;4981769;28;20195;-74
2024/01/18 06:50:27;;;;;;;1.43;1.33;;;;;;;;;;4981379;28;20242;-73
2024/01/18 06:52:52;;;;;;;1.43;1.33;;;;;;;;;;4984369;28;20182;-73
2024/01/18 06:55:18;;;;;;;2.00;1.83;;;;;;;;;;4986125;28;20184;-74
2024/01/18 06:57:49;;;;;;;2.33;1.30;;;;;;;;;;4986754;28;20395;-73
2024/01/18 07:00:16;;;;;;;1.90;1.30;;;;;;;;;;4988993;28;20189;-73
2024/01/18 07:02:42;;;;;;;1.30;1.20;;;;;;;;;;4989616;28;20220;-73
2024/01/18 07:05:07;;;;;;;1.40;1.30;;;;;;;;;;4982719;28;20199;-73
2024/01/18 07:07:33;;;;;;;3.00;1.50;;;;;;;;;;4983700;28;20180;-73
2024/01/18 07:09:58;;;;;;;1.10;1.00;;;;;;;;;;4990218;28;20210;-73
2024/01/18 07:12:24;;;;;;;2.30;1.50;;;;;;;;;;4978370;28;20192;-73
2024/01/18 07:14:50;;;;;;;2.10;1.70;;;;;;;;;;4984720;28;20363;-73
2024/01/18 07:17:15;;;;;;;2.53;1.87;;;;;;;;;;4990489;28;20270;-73
2024/01/18 07:19:41;;;;;;;1.50;1.33;;;;;;;;;;4981122;28;20184;-73
2024/01/18 07:22:06;;;;;;;1.13;1.00;;;;;;;;;;4988061;28;20195;-73
2024/01/18 07:24:32;;;;;;;1.20;1.00;;;;;;;;;;4990665;28;20174;-73
2024/01/18 07:26:57;;;;;;;1.30;1.20;;;;;;;;;;4987257;28;20203;-73
2024/01/18 07:29:23;;;;;;;0.97;0.90;;;;;;;;;;4968776;28;20649;-73
2024/01/18 07:31:48;;;;;;;1.40;1.30;;;;;;;;;;4971353;28;20176;-73
2024/01/18 07:34:15;;;;;;;0.80;0.80;;;;;;;;;;4970941;28;20186;-73
2024/01/18 07:36:40;;;;;;;5.73;2.00;;;;;;;;;;4970371;28;20258;-73
2024/01/18 07:39:05;;;;;;;2.20;1.80;;;;;;;;;;4969947;28;20183;-73
2024/01/18 07:41:31;;;;;;;1.57;1.47;;;;;;;;;;4962643;28;20183;-73
2024/01/18 07:43:56;;;;;;;2.20;2.00;;;;;;;;;;4963592;28;20183;-73
2024/01/18 07:46:21;;;;;;;3.43;2.07;;;;;;;;;;4966394;28;20191;-73
2024/01/18 07:48:46;;;;;;;4.17;2.60;;;;;;;;;;4969719;28;20198;-73
2024/01/18 07:51:12;;;;;;;2.37;2.07;;;;;;;;;;4971888;28;20250;-73
2024/01/18 07:53:37;;;;;;;3.97;2.33;;;;;;;;;;4970025;28;20190;-73
2024/01/18 07:56:02;;;;;;;2.40;1.70;;;;;;;;;;4970444;28;20213;-73
2024/01/18 07:58:28;;;;;;;1.60;1.50;;;;;;;;;;4971494;28;20180;-73
2024/01/18 08:00:53;;;;;;;1.40;1.30;;;;;;;;;;4968470;28;20253;-73
2024/01/18 08:03:18;;;;;;;1.47;1.27;;;;;;;;;;4968301;28;20183;-73
2024/01/18 08:05:43;;;;;;;1.43;1.30;;;;;;;;;;4969853;28;20266;-73
2024/01/18 08:08:09;;;;;;;1.47;1.37;;;;;;;;;;4963976;28;20210;-73
2024/01/18 08:10:34;;;;;;;1.43;1.33;;;;;;;;;;4966604;28;20176;-73
2024/01/18 08:13:01;;;;;;;1.00;1.00;;;;;;;;;;4965674;28;20181;-73
2024/01/18 08:15:26;;;;;;;2.50;1.30;;;;;;;;;;4970063;28;20188;-73
2024/01/18 08:17:51;;;;;;;4.47;1.40;;;;;;;;;;4969051;28;20200;-73
2024/01/18 08:20:17;;;;;;;1.07;1.03;;;;;;;;;;4970151;28;20237;-73
2024/01/18 08:22:42;;;;;;;1.70;1.13;;;;;;;;;;4972920;28;20180;-73
2024/01/18 08:25:08;;;;;;;35.63;4.60;;;;;;;;;;4973272;28;20259;-73
2024/01/18 08:27:33;;;;;;;30.57;3.83;;;;;;;;;;4974252;28;20229;-73
2024/01/18 08:29:58;;;;;;;8.13;1.80;;;;;;;;;;4973394;28;20177;-73
2024/01/18 08:32:28;;;;;;;1.40;1.30;;;;;;;;;;4974478;28;20186;-73
2024/01/18 08:34:54;;;;;;;22.47;3.17;;;;;;;;;;4972102;28;20185;-73
2024/01/18 08:37:19;;;;;;;6.53;1.77;;;;;;;;;;4972773;28;20206;-73
2024/01/18 08:39:46;;;;;;;7.60;1.97;;;;;;;;;;4973015;28;20206;-72
2024/01/18 08:42:11;;;;;;;3.20;1.20;;;;;;;;;;4977395;28;20198;-73
2024/01/18 08:44:36;;;;;;;21.50;3.13;;;;;;;;;;4971748;28;20217;-73
2024/01/18 08:47:02;;;;;;;1.00;1.00;;;;;;;;;;4974523;28;20202;-72
2024/01/18 08:49:27;;;;;;;17.10;3.00;;;;;;;;;;4973555;28;20181;-73
2024/01/18 08:51:52;;;;;;;23.17;4.77;;;;;;;;;;4971673;28;20183;-72
2024/01/18 08:54:17;;;;;;;2.63;2.27;;;;;;;;;;4975444;28;20177;-73
2024/01/18 08:56:43;;;;;;;3.23;2.20;;;;;;;;;;4974196;28;20200;-73
2024/01/18 08:59:08;;;;;;;3.57;1.90;;;;;;;;;;4979343;28;20170;-73
2024/01/18 09:01:33;;;;;;;7.63;2.20;;;;;;;;;;4969825;28;20237;-73
2024/01/18 09:03:58;;;;;;;7.30;1.67;;;;;;;;;;4970479;28;20179;-72
2024/01/18 09:06:23;;;;;;;17.73;2.90;;;;;;;;;;4973062;28;20180;-73
2024/01/18 09:08:49;;;;;;;0.80;0.80;;;;;;;;;;4973011;28;20327;-73
2024/01/18 09:11:14;;;;;;;0.80;0.80;;;;;;;;;;4968270;28;20186;-73
2024/01/18 09:13:41;;;;;;;0.70;0.70;;;;;;;;;;4967737;28;20177;-72
2024/01/18 09:16:07;;;;;;;0.33;0.33;;;;;;;;;;4965038;28;20267;-72
2024/01/18 09:18:32;;;;;;;0.90;0.87;;;;;;;;;;4976116;28;20266;-72
2024/01/18 09:20:57;;;;;;;1.97;0.80;;;;;;;;;;4973414;28;20184;-73
2024/01/18 09:23:22;;;;;;;1.93;1.40;;;;;;;;;;4972689;28;20385;-72
2024/01/18 09:25:48;;;;;;;0.53;0.53;;;;;;;;;;4973423;28;20173;-72
2024/01/18 09:28:14;;;;;;;0.50;0.50;;;;;;;;;;4973404;28;20692;-72
2024/01/18 09:30:39;;;;;;;0.33;0.33;;;;;;;;;;4972092;28;20265;-72
2024/01/18 09:33:04;;;;;;;0.70;0.70;;;;;;;;;;4973671;28;20198;-72
2024/01/18 09:35:30;;;;;;;3.90;1.50;;;;;;;;;;4969573;28;20184;-72
2024/01/18 09:37:56;;;;;;;1.23;0.70;;;;;;;;;;4973403;28;20196;-72
2024/01/18 09:40:22;;;;;;;0.70;0.70;;;;;;;;;;4970581;28;20173;-72
2024/01/18 09:42:48;;;;;;;0.53;0.53;;;;;;;;;;4969287;28;20208;-72
2024/01/18 09:45:14;;;;;;;0.70;0.70;;;;;;;;;;4969894;28;20193;-72
2024/01/18 09:47:44;;;;;;;0.83;0.83;;;;;;;;;;4969879;28;20192;-72
2024/01/18 09:50:09;;;;;;;1.30;0.60;;;;;;;;;;4975833;28;20179;-72
2024/01/18 09:52:35;;;;;;;0.90;0.90;;;;;;;;;;4981189;28;20244;-72
2024/01/18 09:55:00;;;;;;;1.30;0.80;;;;;;;;;;4972470;28;20177;-72
2024/01/18 09:57:32;;;;;;;0.47;0.47;;;;;;;;;;4973717;28;20278;-72
2024/01/18 09:59:59;;;;;;;0.73;0.73;;;;;;;;;;4974037;28;20200;-72
2024/01/18 10:02:25;;;;;;;0.60;0.60;;;;;;;;;;4973831;28;20224;-72
2024/01/18 10:04:52;;;;;;;2.20;1.07;;;;;;;;;;4972270;28;20207;-72
2024/01/18 10:07:17;;;;;;;0.80;0.80;;;;;;;;;;4976527;28;20180;-73
2024/01/18 10:09:44;;;;;;;2.93;0.90;;;;;;;;;;4972796;28;20191;-72
2024/01/18 10:12:10;;;;;;;0.97;0.87;;;;;;;;;;4971767;28;20248;-73
2024/01/18 10:14:42;;;;;;;0.63;0.63;;;;;;;;;;4973328;28;20260;-73
2024/01/18 10:17:07;;;;;;;0.70;0.70;;;;;;;;;;4974031;28;20197;-72
2024/01/18 10:19:33;;;;;;;0.50;0.50;;;;;;;;;;4971854;28;20184;-72
2024/01/18 10:22:00;;;;;;;0.40;0.40;;;;;;;;;;4972524;28;20177;-73
2024/01/18 10:24:25;;;;;;;0.70;0.70;;;;;;;;;;4970838;28;20204;-72
2024/01/18 10:27:00;;;;;;;0.70;0.70;;;;;;;;;;4971910;28;20181;-72
2024/01/18 10:29:25;;;;;;;0.77;0.77;;;;;;;;;;4974805;28;20224;-72
2024/01/18 10:31:50;;;;;;;0.43;0.43;;;;;;;;;;4974445;28;20177;-73
2024/01/18 10:34:16;;;;;;;0.50;0.50;;;;;;;;;;4973536;28;20263;-72
2024/01/18 10:36:41;;;;;;;1.03;0.93;;;;;;;;;;4972802;28;20205;-72
2024/01/18 10:39:18;;;;;;;0.73;0.73;;;;;;;;;;4953186;28;20180;-72
2024/01/18 10:41:44;;;;;;;0.50;0.50;;;;;;;;;;4955445;28;20181;-72
2024/01/18 10:44:09;;;;;;;0.30;0.30;;;;;;;;;;4970093;28;20160;-72
2024/01/18 10:46:35;;;;;;;0.70;0.63;;;;;;;;;;4955110;28;20264;-72
2024/01/18 10:49:01;;;;;;;0.30;0.30;;;;;;;;;;4955998;28;20288;-72
2024/01/18 10:51:27;;;;;;;0.50;0.50;;;;;;;;;;4979871;28;20189;-72
2024/01/18 10:53:52;;;;;;;0.50;0.50;;;;;;;;;;4967614;28;20188;-72
2024/01/18 10:56:18;;;;;;;0.40;0.40;;;;;;;;;;4954520;28;20255;-72
2024/01/18 10:58:44;;;;;;;0.50;0.50;;;;;;;;;;4956448;28;20183;-72
2024/01/18 11:01:09;;;;;;;0.40;0.40;;;;;;;;;;4955566;28;20244;-72
2024/01/18 11:03:35;;;;;;;0.57;0.57;;;;;;;;;;4971669;28;20236;-72
2024/01/18 11:06:04;;;;;;;0.53;0.53;;;;;;;;;;4947051;28;20215;-72
2024/01/18 11:08:31;;;;;;;0.77;0.77;;;;;;;;;;4955468;28;20184;-72
2024/01/18 11:10:57;;;;;;;0.83;0.83;;;;;;;;;;4973897;28;20181;-72
2024/01/18 11:13:22;;;;;;;0.73;0.73;;;;;;;;;;4954936;28;20231;-72
2024/01/18 11:15:47;;;;;;;0.70;0.70;;;;;;;;;;4973372;28;20173;-72
2024/01/18 11:18:13;;;;;;;0.87;0.87;;;;;;;;;;4972506;28;20196;-72
2024/01/18 11:20:57;;;;;;;1.20;1.10;;;;;;;;;;4969996;28;20188;-72
2024/01/18 11:23:25;;;;;;;1.00;1.00;;;;;;;;;;4972578;28;20251;-72
2024/01/18 11:25:50;;;;;;;0.83;0.83;;;;;;;;;;4970934;28;20176;-72
2024/01/18 11:28:21;;;;;;;1.20;1.10;;;;;;;;;;4955004;28;20228;-72
2024/01/18 11:30:47;;;;;;;1.33;1.23;;;;;;;;;;4972673;28;20204;-72
2024/01/18 11:33:12;;;;;;;1.93;1.73;;;;;;;;;;4975999;28;20192;-73
2024/01/18 11:35:37;;;;;;;1.40;1.30;;;;;;;;;;4957480;28;20187;-72
2024/01/18 11:38:18;;;;;;;1.60;1.50;;;;;;;;;;4974085;28;20201;-72
2024/01/18 11:40:44;;;;;;;1.90;1.70;;;;;;;;;;4951782;28;20173;-72
2024/01/18 11:43:10;;;;;;;1.70;1.60;;;;;;;;;;4950892;28;20173;-72
2024/01/18 11:45:35;;;;;;;2.97;2.77;;;;;;;;;;4973853;28;20211;-72
2024/01/18 11:48:01;;;;;;;2.87;2.63;;;;;;;;;;4958508;28;20196;-72
2024/01/18 11:50:26;;;;;;;2.40;2.20;;;;;;;;;;4977116;28;20177;-71
2024/01/18 11:52:51;;;;;;;3.60;2.10;;;;;;;;;;4958461;28;20211;-71
2024/01/18 11:55:17;;;;;;;3.00;2.57;;;;;;;;;;4958811;28;20176;-72
2024/01/18 11:57:43;;;;;;;2.00;1.90;;;;;;;;;;4954834;28;20201;-72
2024/01/18 12:00:10;;;;;;;2.90;2.17;;;;;;;;;;4971649;28;20180;-72
2024/01/18 12:02:36;;;;;;;2.93;2.73;;;;;;;;;;4974673;28;20177;-72
2024/01/18 12:05:03;;;;;;;2.20;2.00;;;;;;;;;;4967382;28;20249;-72
2024/01/18 12:07:28;;;;;;;3.93;3.23;;;;;;;;;;4972535;28;20173;-72
2024/01/18 12:09:54;;;;;;;7.93;2.80;;;;;;;;;;4971901;28;20173;-72
2024/01/18 12:12:19;;;;;;;3.27;2.97;;;;;;;;;;4972452;28;20224;-72
2024/01/18 12:14:45;;;;;;;2.63;2.20;;;;;;;;;;4971316;28;20172;-72
2024/01/18 12:17:11;;;;;;;2.87;2.63;;;;;;;;;;4972457;28;20200;-72
2024/01/18 12:19:38;;;;;;;3.10;2.80;;;;;;;;;;4956769;28;20218;-72
2024/01/18 12:22:07;;;;;;;3.93;2.53;;;;;;;;;;4975404;28;20205;-72
2024/01/18 12:24:32;;;;;;;3.83;2.93;;;;;;;;;;4972326;28;20266;-72
2024/01/18 12:27:07;;;;;;;2.80;2.60;;;;;;;;;;4959168;28;20266;-72
2024/01/18 12:29:34;;;;;;;1.90;1.77;;;;;;;;;;4954648;28;20223;-72
2024/01/18 12:32:00;;;;;;;3.50;3.20;;;;;;;;;;4971782;28;20181;-72
2024/01/18 12:34:26;;;;;;;2.23;1.73;;;;;;;;;;4972245;28;20185;-72
2024/01/18 12:36:54;;;;;;;3.17;2.80;;;;;;;;;;4952859;28;20202;-72
2024/01/18 12:39:20;;;;;;;3.97;3.07;;;;;;;;;;4973175;28;20189;-71
2024/01/18 12:41:45;;;;;;;2.83;2.03;;;;;;;;;;4964706;28;20260;-71
2024/01/18 12:44:11;;;;;;;4.60;3.07;;;;;;;;;;4971699;28;20184;-72
2024/01/18 12:46:37;;;;;;;4.57;2.73;;;;;;;;;;4971372;28;20489;-71
2024/01/18 12:49:03;;;;;;;4.50;4.13;;;;;;;;;;4949999;28;20326;-72
2024/01/18 12:51:28;;;;;;;4.80;4.30;;;;;;;;;;4963086;28;20180;-72
2024/01/18 12:53:54;;;;;;;3.17;2.90;;;;;;;;;;4971466;28;20180;-72
2024/01/18 12:56:20;;;;;;;3.03;2.73;;;;;;;;;;4953885;28;20177;-72
2024/01/18 12:58:45;;;;;;;3.70;3.00;;;;;;;;;;4970770;28;20165;-72
2024/01/18 13:01:23;;;;;;;4.27;3.87;;;;;;;;;;4971688;28;20172;-72
2024/01/18 13:03:49;;;;;;;2.97;2.70;;;;;;;;;;4978957;28;20229;-72
2024/01/18 13:06:15;;;;;;;4.20;3.80;;;;;;;;;;4953839;28;20259;-72
2024/01/18 13:08:40;;;;;;;3.97;3.57;;;;;;;;;;4971902;28;20228;-72
2024/01/18 13:11:06;;;;;;;8.83;4.97;;;;;;;;;;4954847;28;20182;-72
2024/01/18 13:13:31;;;;;;;4.13;3.77;;;;;;;;;;4954796;28;20204;-72
2024/01/18 13:15:57;;;;;;;4.47;3.57;;;;;;;;;;4974093;28;20244;-72
2024/01/18 13:18:25;;;;;;;2.90;2.53;;;;;;;;;;4957715;28;20211;-71
2024/01/18 13:20:51;;;;;;;3.53;2.73;;;;;;;;;;4958087;28;20240;-72
2024/01/18 13:23:16;;;;;;;4.87;4.40;;;;;;;;;;4957013;28;20177;-72
2024/01/18 13:25:42;;;;;;;4.73;4.30;;;;;;;;;;4974984;28;20184;-72
2024/01/18 13:28:07;;;;;;;4.20;3.67;;;;;;;;;;4960033;28;20259;-72
2024/01/18 13:30:32;;;;;;;4.30;3.77;;;;;;;;;;4979545;28;20184;-72
2024/01/18 13:32:57;;;;;;;2.63;2.37;;;;;;;;;;4984096;28;20185;-71
2024/01/18 13:35:23;;;;;;;5.00;4.60;;;;;;;;;;4973550;28;20189;-72
2024/01/18 13:37:48;;;;;;;4.07;3.77;;;;;;;;;;4975114;28;20196;-72
2024/01/18 13:40:13;;;;;;;3.73;3.43;;;;;;;;;;4957005;28;20176;-72
2024/01/18 13:42:38;;;;;;;6.43;5.03;;;;;;;;;;4960521;28;20174;-71
2024/01/18 13:45:04;;;;;;;2.93;2.43;;;;;;;;;;4961724;28;20191;-72
2024/01/18 13:47:29;;;;;;;3.80;3.50;;;;;;;;;;4977631;28;20269;-71
2024/01/18 13:49:54;;;;;;;4.63;4.10;;;;;;;;;;4980364;28;20180;-72
2024/01/18 13:52:20;;;;;;;4.23;3.50;;;;;;;;;;4954977;28;20262;-72
2024/01/18 13:54:45;;;;;;;2.73;2.43;;;;;;;;;;4960789;28;20270;-72
2024/01/18 13:57:12;;;;;;;2.60;2.23;;;;;;;;;;4976423;28;20185;-72
2024/01/18 13:59:37;;;;;;;4.33;3.70;;;;;;;;;;4957122;28;20193;-72
2024/01/18 14:02:03;;;;;;;4.13;2.70;;;;;;;;;;4957997;28;20179;-72
2024/01/18 14:04:28;;;;;;;2.73;2.47;;;;;;;;;;4958514;28;20180;-72
2024/01/18 14:06:54;;;;;;;3.17;2.90;;;;;;;;;;4956841;28;20185;-72
2024/01/18 14:09:19;;;;;;;3.23;2.93;;;;;;;;;;4956824;28;20185;-73
2024/01/18 14:11:45;;;;;;;2.20;1.80;;;;;;;;;;4977423;28;20486;-72
2024/01/18 14:14:10;;;;;;;3.90;3.50;;;;;;;;;;4973719;28;20184;-71
2024/01/18 14:16:36;;;;;;;4.77;3.80;;;;;;;;;;4973900;28;20205;-72
2024/01/18 14:19:02;;;;;;;3.03;2.73;;;;;;;;;;4956493;28;20311;-71
2024/01/18 14:21:27;;;;;;;4.83;3.80;;;;;;;;;;4973844;28;20262;-72
2024/01/18 14:23:52;;;;;;;3.23;2.93;;;;;;;;;;4957453;28;20212;-72
2024/01/18 14:26:17;;;;;;;3.33;3.03;;;;;;;;;;4972560;28;20173;-71
2024/01/18 14:28:44;;;;;;;3.53;3.03;;;;;;;;;;4972570;28;20533;-74
2024/01/18 14:31:10;;;;;;;3.40;3.10;;;;;;;;;;4956461;28;20197;-75
2024/01/18 14:33:36;;;;;;;4.50;3.97;;;;;;;;;;4971992;28;20275;-75